Aérodrome :
LOGIN :

S'inscrire | Disclaimer

   EN    FR    IT 

 










Légende :    VFR   VFR Marginal   IFR   IFR Intensif   IFR Très Intensif
Visi : 
Plafond : 
>= 8 km
>= 3000ft
5 à 8 km
1000 à 3000 ft
1500m à 5 km
500 à 1000 ft
800 à 1500m
200 à 500 ft
< 800m
< 200 ft
Symboles :   Orages  Brouillard  Fortes neiges  Fortes précipitations  Vent > 20 kt
SIGMETs :   Divers  Orages  Givrage  Turbulence  Onde Orograph.  Cendres Volcan.







- Altitude de l'aérodrome : 1487 ft
- Code IATA : MUC


EDDM - München Franz Josef Strauss

DERNIER METAR :
  • 192250Z 04004KT 360V080 0700 0350E R08L/0450N R08R/0325V0500U FG SCT001 07/07 Q1015 TEMPO 0500 VV001

METARs EXPIRÉS :
  • 192220Z 07003KT 1400 0800N R08L/0325V0650N R08R/0350V0600D PRFG NSC 06/06 Q1015 BECMG 0700 FG VV001
  • 192150Z VRB02KT 2000 0800N R26R/0275N R08R/P2000N PRFG NSC 07/07 Q1015 BECMG 0800 FG VV001
  • 192120Z 12001KT 4500 1500N R08L/0150N R08R/0350V0900D PRFG NSC 08/07 Q1015 BECMG 0800 FG VV001
  • 192050Z 05003KT 6000 1500N R08L/0250V0375N BCFG NSC 07/06 Q1015 BECMG 3000
  • 192020Z VRB02KT 9999 1500N R08L/0325D BCFG NSC 09/08 Q1015 BECMG 3000

TAF TAF EDDM
Valide du 19 à 18h jusqu'au 21 à 00h UTC


191700Z 1918/2024 05003KT CAVOK
BECMG 1920/1923 2500 BCFG
PROB30
TEMPO 2002/2006 0400 FG OVC002
BECMG 2006/2009 24005KT CAVOK
TEMPO 2022/2024 2000 BCFG
Pas de NOTAMs connus pour ce terrain.



MET'MAP, la Météo Aéronautique d'un coup d'oeil ! - Copyright ORBIFLY Décembre 2007 - Disclaimer

ORBIFLY MET'MAP TEAM :

Programmation & Développement : Alexandra Zaïnal
Conception & Développement : Baudouin d'Aumeries
Co-Programmation & Développement : Marc-Olivier Méhu
Soutien technique & logistique : Manuel Goepfert

Contact : metmap@orbifly.com




SOURCES & CREDITS :

   NOAA